createdAt,value
2018-08-09T00:00:43.656Z,19.57
2018-08-09T00:03:13.430Z,18.87
2018-08-09T00:05:42.653Z,20.77
2018-08-09T00:08:12.601Z,20.60
2018-08-09T00:10:41.730Z,19.03
2018-08-09T00:13:11.241Z,19.47
2018-08-09T00:15:40.542Z,17.67
2018-08-09T00:18:09.826Z,16.57
2018-08-09T00:20:39.156Z,16.63
2018-08-09T00:23:08.416Z,16.47
2018-08-09T00:35:45.443Z,16.77
2018-08-09T00:38:14.971Z,17.00
2018-08-09T00:40:44.642Z,16.17
2018-08-09T00:43:14.843Z,15.50
2018-08-09T00:45:46.412Z,15.00
2018-08-09T00:48:15.854Z,14.03
2018-08-09T00:50:47.636Z,13.50
2018-08-09T00:53:16.763Z,14.17
2018-08-09T00:55:46.084Z,15.87
2018-08-09T00:58:15.307Z,17.17
2018-08-09T01:00:44.552Z,19.13
2018-08-09T01:03:14.344Z,19.50
2018-08-09T01:05:43.591Z,17.87
2018-08-09T01:08:13.150Z,19.50
2018-08-09T01:10:42.469Z,21.27
2018-08-09T01:13:13.292Z,21.03
2018-08-09T01:15:42.629Z,33.77
2018-08-09T01:18:12.594Z,40.53
2018-08-09T01:20:42.542Z,23.27
2018-08-09T01:23:12.239Z,24.30
2018-08-09T01:25:41.832Z,19.53
2018-08-09T01:28:11.754Z,21.20
2018-08-09T01:30:40.987Z,22.03
2018-08-09T01:33:10.129Z,21.90
2018-08-09T01:35:39.338Z,20.43
2018-08-09T01:38:08.488Z,18.27
2018-08-09T01:40:37.639Z,19.63
2018-08-09T01:43:17.534Z,19.00
2018-08-09T01:45:46.688Z,20.47
2018-08-09T01:48:15.929Z,21.97
2018-08-09T01:50:45.066Z,21.43
2018-08-09T01:53:14.742Z,21.87
2018-08-09T01:55:44.042Z,23.53
2018-08-09T01:58:13.672Z,24.53
2018-08-09T02:00:42.747Z,23.87
2018-08-09T02:03:12.020Z,22.27
2018-08-09T02:05:41.825Z,23.90
2018-08-09T02:08:11.144Z,20.27
2018-08-09T02:10:40.272Z,19.97
2018-08-09T02:13:09.381Z,20.47
2018-08-09T02:15:38.469Z,20.07
2018-08-09T02:18:08.707Z,20.33
2018-08-09T02:20:58.967Z,21.60
2018-08-09T02:23:55.646Z,21.57
2018-08-09T02:26:34.098Z,20.10
2018-08-09T02:29:20.516Z,21.70
2018-08-09T02:31:49.640Z,21.63
2018-08-09T02:34:18.696Z,20.77
2018-08-09T02:36:52.975Z,20.70
2018-08-09T02:39:22.245Z,22.83
2018-08-09T02:41:51.400Z,22.37
2018-08-09T02:44:20.569Z,21.20
2018-08-09T02:46:49.889Z,21.53
2018-08-09T02:49:19.061Z,22.63
2018-08-09T02:51:48.180Z,21.67
2018-08-09T02:54:17.583Z,20.67
2018-08-09T02:56:46.668Z,20.63
2018-08-09T02:59:33.068Z,23.33
2018-08-09T03:02:02.709Z,25.13
2018-08-09T03:04:31.859Z,22.80
2018-08-09T03:07:01.168Z,23.30
2018-08-09T03:09:30.294Z,24.60
2018-08-09T03:11:59.752Z,22.73
2018-08-09T03:14:28.753Z,22.90
2018-08-09T03:16:59.108Z,25.93
2018-08-09T03:19:28.238Z,24.87
2018-08-09T03:21:57.354Z,24.50
2018-08-09T03:24:26.522Z,25.77
2018-08-09T03:27:02.121Z,25.47
2018-08-09T03:29:31.277Z,25.47
2018-08-09T03:32:00.420Z,25.53
2018-08-09T03:34:29.593Z,25.13
2018-08-09T03:36:58.684Z,28.00
2018-08-09T03:39:27.759Z,29.83
2018-08-09T03:41:56.905Z,29.70
2018-08-09T03:44:26.493Z,36.00
2018-08-09T03:46:55.509Z,37.70
2018-08-09T03:49:24.757Z,37.53
2018-08-09T03:51:53.829Z,34.20
2018-08-09T03:54:22.846Z,31.97
2018-08-09T03:56:51.900Z,22.37
2018-08-09T03:59:20.887Z,24.47
2018-08-09T04:01:49.918Z,28.47
2018-08-09T04:04:19.015Z,29.17
2018-08-09T04:06:48.049Z,21.50
2018-08-09T04:09:17.045Z,20.17
2018-08-09T04:11:46.113Z,21.17
2018-08-09T04:14:15.108Z,24.20
2018-08-09T04:16:44.219Z,28.93
2018-08-09T04:19:13.707Z,26.03
2018-08-09T04:21:42.759Z,28.50
2018-08-09T04:24:12.189Z,20.23
2018-08-09T04:26:41.239Z,15.33
2018-08-09T04:29:10.288Z,14.80
2018-08-09T04:31:39.368Z,14.60
2018-08-09T04:34:08.589Z,12.50
2018-08-09T04:36:37.805Z,11.60
2018-08-09T04:39:09.007Z,11.80
2018-08-09T04:41:37.985Z,12.90
2018-08-09T04:44:07.053Z,12.40
2018-08-09T04:46:36.087Z,12.43
2018-08-09T04:49:05.178Z,12.37
2018-08-09T04:51:34.357Z,11.57
2018-08-09T04:54:03.369Z,11.73
2018-08-09T04:56:32.389Z,10.60
2018-08-09T04:59:02.497Z,10.47
2018-08-09T05:01:31.630Z,9.87
2018-08-09T05:04:00.708Z,10.50
2018-08-09T05:06:29.996Z,10.43
2018-08-09T05:08:59.088Z,9.70
2018-08-09T05:11:28.159Z,10.10
2018-08-09T05:13:57.371Z,9.93
2018-08-09T05:16:26.474Z,9.57
2018-08-09T05:18:55.674Z,9.27
2018-08-09T05:21:24.708Z,8.93
2018-08-09T05:23:53.763Z,9.47
2018-08-09T05:26:22.967Z,9.13
2018-08-09T05:28:52.011Z,8.97
2018-08-09T05:31:21.194Z,9.07
2018-08-09T05:33:50.497Z,9.77
2018-08-09T05:36:19.541Z,9.73
2018-08-09T05:38:48.725Z,8.17
2018-08-09T05:41:17.884Z,9.13
2018-08-09T05:43:47.082Z,9.70
2018-08-09T05:46:16.167Z,10.00
2018-08-09T05:48:45.282Z,9.87
2018-08-09T05:51:14.960Z,10.00
2018-08-09T05:53:44.241Z,10.33
2018-08-09T05:56:13.780Z,9.83
2018-08-09T05:58:42.784Z,10.50
2018-08-09T06:01:12.413Z,9.07
2018-08-09T06:03:41.463Z,8.87
2018-08-09T06:06:10.596Z,9.13
2018-08-09T06:08:39.730Z,9.87
2018-08-09T06:11:08.872Z,8.83
2018-08-09T06:13:37.954Z,9.57
2018-08-09T06:16:07.357Z,10.13
2018-08-09T06:18:36.519Z,8.93
2018-08-09T06:21:05.865Z,9.23
2018-08-09T06:23:35.076Z,9.37
2018-08-09T06:26:04.268Z,9.97
2018-08-09T06:28:33.363Z,9.23
2018-08-09T06:31:02.448Z,9.20
2018-08-09T06:33:31.911Z,10.10
2018-08-09T06:36:00.859Z,10.43
2018-08-09T06:38:29.906Z,9.63
2018-08-09T06:40:58.959Z,10.07
2018-08-09T06:43:28.022Z,9.60
2018-08-09T06:45:57.387Z,10.40
2018-08-09T06:48:26.443Z,11.00
2018-08-09T06:50:57.261Z,10.87
2018-08-09T06:53:26.401Z,10.30
2018-08-09T06:55:55.491Z,10.90
2018-08-09T06:58:24.700Z,10.60
2018-08-09T07:00:53.874Z,10.57
2018-08-09T07:03:22.873Z,10.40
2018-08-09T07:05:54.248Z,10.77
2018-08-09T07:08:23.414Z,10.03
2018-08-09T07:10:52.621Z,10.10
2018-08-09T07:13:21.788Z,9.40
2018-08-09T07:15:50.850Z,9.80
2018-08-09T07:18:20.003Z,10.27
2018-08-09T07:20:49.023Z,9.70
2018-08-09T07:23:18.040Z,9.77
2018-08-09T07:25:47.192Z,8.87
2018-08-09T07:28:16.268Z,10.10
2018-08-09T07:30:45.537Z,8.50
2018-08-09T07:33:15.139Z,9.00
2018-08-09T07:35:44.294Z,8.83
2018-08-09T07:38:14.417Z,8.70
2018-08-09T07:40:44.418Z,8.67
2018-08-09T07:43:13.949Z,9.00
2018-08-09T07:45:43.045Z,8.43
2018-08-09T07:48:12.541Z,8.97
2018-08-09T07:50:41.644Z,8.60
2018-08-09T07:53:10.761Z,8.57
2018-08-09T07:55:40.023Z,7.60
2018-08-09T07:58:09.351Z,7.80
2018-08-09T08:00:38.443Z,7.27
2018-08-09T08:03:07.921Z,7.03
2018-08-09T08:05:37.029Z,7.80
2018-08-09T08:08:06.343Z,7.93
2018-08-09T08:10:35.543Z,7.63
2018-08-09T08:13:04.762Z,7.80
2018-08-09T08:15:33.810Z,7.93
2018-08-09T08:18:03.004Z,7.07
2018-08-09T08:20:32.043Z,8.23
2018-08-09T08:23:01.298Z,7.53
2018-08-09T08:25:30.999Z,8.37
2018-08-09T08:28:00.775Z,8.80
2018-08-09T08:30:32.974Z,7.87
2018-08-09T08:33:02.040Z,8.80
2018-08-09T08:35:31.500Z,8.83
2018-08-09T08:38:00.626Z,7.83
2018-08-09T08:46:15.278Z,8.73
2018-08-09T08:48:44.440Z,8.40
2018-08-09T08:51:14.234Z,8.50
2018-08-09T08:53:43.487Z,8.77
2018-08-09T08:56:13.044Z,8.57
2018-08-09T08:58:42.254Z,7.60
2018-08-09T09:01:12.157Z,8.17
2018-08-09T09:03:41.426Z,8.13
2018-08-09T09:06:10.567Z,8.60
2018-08-09T09:08:39.821Z,8.10
2018-08-09T09:11:08.955Z,7.90
2018-08-09T09:13:38.175Z,7.97
2018-08-09T09:16:07.460Z,8.13
2018-08-09T09:18:37.819Z,8.00
2018-08-09T09:21:07.126Z,8.67
2018-08-09T09:33:52.996Z,8.90
2018-08-09T09:36:22.084Z,8.60
2018-08-09T09:38:51.348Z,9.20
2018-08-09T09:41:20.444Z,8.77
2018-08-09T09:43:49.535Z,8.50
2018-08-09T09:46:22.766Z,8.43
2018-08-09T09:48:51.885Z,9.23
2018-08-09T09:51:21.369Z,9.10
2018-08-09T09:53:51.476Z,8.63
2018-08-09T09:56:20.864Z,8.97
2018-08-09T09:58:50.100Z,9.20
2018-08-09T10:01:24.347Z,8.90
2018-08-09T10:03:53.363Z,9.10
2018-08-09T10:06:22.429Z,8.53
2018-08-09T10:08:52.028Z,8.53
2018-08-09T10:11:21.138Z,9.40
2018-08-09T10:13:50.277Z,8.80
2018-08-09T10:16:19.474Z,9.43
2018-08-09T10:18:48.666Z,8.63
2018-08-09T10:21:18.032Z,8.53
2018-08-09T10:23:47.201Z,8.73
2018-08-09T10:26:16.274Z,9.00
2018-08-09T10:28:47.487Z,9.23
2018-08-09T10:31:16.479Z,9.07
2018-08-09T10:33:45.710Z,9.10
2018-08-09T10:36:15.432Z,9.30
2018-08-09T10:38:44.551Z,8.53
2018-08-09T10:41:14.592Z,9.83
2018-08-09T10:43:43.685Z,8.63
2018-08-09T10:46:13.272Z,9.17
2018-08-09T10:48:43.215Z,9.00
2018-08-09T10:51:12.584Z,9.53
2018-08-09T10:53:41.906Z,8.77
2018-08-09T10:56:11.117Z,9.57
2018-08-09T10:58:40.611Z,9.07
2018-08-09T11:01:12.334Z,9.73
2018-08-09T11:03:41.665Z,8.43
2018-08-09T11:06:10.784Z,9.13
2018-08-09T11:08:39.882Z,9.20
2018-08-09T11:11:13.434Z,9.00
2018-08-09T11:13:45.082Z,9.07
2018-08-09T11:16:15.740Z,9.73
2018-08-09T11:18:45.318Z,8.93
2018-08-09T11:21:16.490Z,8.63
2018-08-09T11:23:45.659Z,8.70
2018-08-09T11:26:16.496Z,8.77
2018-08-09T11:29:19.364Z,8.40
2018-08-09T11:32:16.809Z,9.00
2018-08-09T11:35:00.591Z,8.20
2018-08-09T11:37:55.297Z,8.10
2018-08-09T11:43:40.356Z,8.30
2018-08-09T11:46:13.550Z,8.10
2018-08-09T11:48:44.663Z,8.60
2018-08-09T11:51:23.480Z,8.23
2018-08-09T11:53:54.666Z,8.53
2018-08-09T11:56:51.555Z,8.33
2018-08-09T11:59:21.282Z,7.93
2018-08-09T12:01:50.680Z,8.33
2018-08-09T12:04:19.996Z,8.40
2018-08-09T12:06:49.174Z,7.57
2018-08-09T12:09:18.475Z,8.03
2018-08-09T12:11:47.868Z,8.83
2018-08-09T12:14:16.975Z,9.20
2018-08-09T12:16:46.037Z,7.80
2018-08-09T12:19:15.817Z,8.07
2018-08-09T12:21:44.928Z,8.60
2018-08-09T12:24:14.808Z,8.37
2018-08-09T12:26:43.869Z,8.60
2018-08-09T12:29:13.582Z,8.00
2018-08-09T12:31:42.898Z,8.20
2018-08-09T12:34:12.297Z,8.27
2018-08-09T12:36:41.564Z,8.57
2018-08-09T12:42:24.879Z,9.10
2018-08-09T12:45:16.004Z,8.77
2018-08-09T12:48:08.607Z,8.50
2018-08-09T12:51:01.408Z,8.30
2018-08-09T12:53:56.880Z,9.47
2018-08-09T12:56:27.645Z,8.90
2018-08-09T12:58:56.779Z,8.57
2018-08-09T13:01:26.375Z,8.40
2018-08-09T13:03:55.391Z,8.97
2018-08-09T13:06:24.641Z,8.67
2018-08-09T13:08:54.096Z,8.93
2018-08-09T13:11:23.867Z,9.27
2018-08-09T13:13:54.925Z,8.40
2018-08-09T13:16:24.704Z,8.73
2018-08-09T13:18:56.084Z,8.10
2018-08-09T13:21:26.454Z,9.00
2018-08-09T13:23:57.931Z,9.67
2018-08-09T13:26:27.159Z,9.00
2018-08-09T13:28:56.943Z,9.43
2018-08-09T13:31:26.073Z,9.03
2018-08-09T13:33:55.347Z,8.53
2018-08-09T13:36:24.552Z,8.73
2018-08-09T13:38:53.723Z,9.00
2018-08-09T13:41:22.783Z,9.10
2018-08-09T13:43:51.858Z,8.80
2018-08-09T13:46:20.934Z,8.20
2018-08-09T13:48:50.147Z,9.23
2018-08-09T13:51:19.292Z,8.23
2018-08-09T13:53:48.652Z,8.77
2018-08-09T13:56:18.748Z,8.50
2018-08-09T13:58:49.885Z,8.77
2018-08-09T14:01:19.173Z,9.00
2018-08-09T14:03:48.147Z,8.57
2018-08-09T14:06:17.345Z,9.53
2018-08-09T14:08:46.578Z,8.83
2018-08-09T14:11:15.751Z,8.70
2018-08-09T14:13:44.839Z,8.93
2018-08-09T14:16:14.599Z,8.73
2018-08-09T14:18:43.741Z,9.17
2018-08-09T14:21:14.335Z,9.87
2018-08-09T14:23:43.342Z,8.73
2018-08-09T14:26:13.559Z,9.17
2018-08-09T14:28:49.301Z,9.43
2018-08-09T14:31:18.340Z,9.07
2018-08-09T14:33:53.837Z,9.20
2018-08-09T14:36:23.370Z,8.77
2018-08-09T14:38:52.697Z,9.50
2018-08-09T14:41:21.833Z,9.10
2018-08-09T14:43:50.871Z,8.83
2018-08-09T14:46:20.149Z,8.67
2018-08-09T14:48:49.336Z,9.80
2018-08-09T14:51:18.517Z,8.57
2018-08-09T14:53:47.777Z,8.67
2018-08-09T14:56:17.172Z,8.50
2018-08-09T14:58:46.909Z,8.60
2018-08-09T15:01:16.399Z,8.40
2018-08-09T15:03:47.103Z,8.60
2018-08-09T15:06:16.174Z,8.93
2018-08-09T15:08:45.402Z,9.30
2018-08-09T15:11:15.200Z,8.10
2018-08-09T15:13:44.346Z,8.67
2018-08-09T15:16:14.512Z,8.23
2018-08-09T15:18:44.852Z,7.77
2018-08-09T15:21:15.910Z,8.17
2018-08-09T15:23:49.798Z,7.57
2018-08-09T15:26:18.802Z,7.33
2018-08-09T15:28:48.130Z,7.77
2018-08-09T15:31:17.154Z,10.37
2018-08-09T15:33:48.076Z,9.90
2018-08-09T15:36:18.385Z,9.63
2018-08-09T15:38:47.581Z,10.10
2018-08-09T15:41:16.692Z,9.33
2018-08-09T15:43:49.447Z,9.13
2018-08-09T15:46:21.063Z,9.60
2018-08-09T15:48:51.037Z,8.77
2018-08-09T15:51:21.152Z,9.37
2018-08-09T15:53:52.777Z,10.30
2018-08-09T15:56:22.109Z,9.37
2018-08-09T15:58:51.412Z,9.60
2018-08-09T16:01:20.528Z,10.47
2018-08-09T16:03:49.680Z,10.17
2018-08-09T16:06:19.389Z,10.83
2018-08-09T16:08:48.773Z,9.83
2018-08-09T16:11:19.195Z,10.33
2018-08-09T16:13:50.535Z,10.70
2018-08-09T16:16:23.110Z,11.33
2018-08-09T16:18:55.539Z,10.23
2018-08-09T16:21:34.649Z,10.90
2018-08-09T16:24:09.960Z,10.53
2018-08-09T16:26:41.054Z,10.73
2018-08-09T16:29:17.185Z,10.57
2018-08-09T16:31:46.427Z,10.57
2018-08-09T16:34:15.675Z,11.13
2018-08-09T16:36:45.105Z,11.90
2018-08-09T16:39:15.336Z,11.67
2018-08-09T16:41:45.489Z,10.87
2018-08-09T16:44:15.144Z,11.63
2018-08-09T16:46:44.219Z,10.67
2018-08-09T16:49:13.794Z,10.87
2018-08-09T16:51:42.852Z,11.20
2018-08-09T16:54:12.368Z,11.97
2018-08-09T16:56:42.102Z,11.37
2018-08-09T16:59:12.066Z,11.90
2018-08-09T17:01:42.270Z,12.03
2018-08-09T17:04:13.123Z,11.93
2018-08-09T17:06:42.286Z,13.13
2018-08-09T17:09:14.549Z,11.33
2018-08-09T17:11:46.028Z,12.13
2018-08-09T17:14:16.813Z,12.40
2018-08-09T17:16:46.163Z,12.30
2018-08-09T17:19:15.708Z,11.80
2018-08-09T17:21:44.943Z,11.03
2018-08-09T17:24:14.498Z,11.83
2018-08-09T17:26:43.760Z,12.00
2018-08-09T17:29:13.096Z,12.20
2018-08-09T17:31:42.079Z,13.17
2018-08-09T17:34:11.838Z,13.20
2018-08-09T17:36:41.070Z,12.87
2018-08-09T17:39:12.402Z,12.83
2018-08-09T17:41:41.684Z,12.53
2018-08-09T17:44:12.227Z,12.30
2018-08-09T17:46:41.605Z,13.17
2018-08-09T17:49:10.683Z,12.30
2018-08-09T17:51:39.838Z,13.00
2018-08-09T17:54:08.973Z,12.50
2018-08-09T17:56:39.650Z,14.17
2018-08-09T17:59:18.647Z,13.43
2018-08-09T18:01:49.973Z,13.90
2018-08-09T18:04:22.405Z,12.50
2018-08-09T18:06:53.803Z,13.17
2018-08-09T18:09:43.408Z,12.80
2018-08-09T18:12:15.746Z,13.30
2018-08-09T18:14:46.452Z,12.77
2018-08-09T18:17:16.465Z,12.57
2018-08-09T18:19:45.632Z,12.80
2018-08-09T18:22:15.346Z,12.27
2018-08-09T18:24:44.575Z,12.63
2018-08-09T18:27:14.660Z,12.90
2018-08-09T18:29:43.777Z,12.83
2018-08-09T18:32:13.621Z,13.97
2018-08-09T18:34:42.729Z,12.83
2018-08-09T18:37:12.826Z,11.73
2018-08-09T18:39:41.919Z,12.67
2018-08-09T18:42:10.903Z,12.73
2018-08-09T18:44:40.090Z,12.80
2018-08-09T18:47:09.547Z,13.77
2018-08-09T18:49:39.335Z,12.97
2018-08-09T18:52:09.625Z,13.67
2018-08-09T18:54:38.857Z,14.23
2018-08-09T18:57:09.279Z,13.37
2018-08-09T18:59:38.488Z,12.53
2018-08-09T19:02:07.712Z,13.50
2018-08-09T19:07:33.751Z,13.87
2018-08-09T19:10:03.291Z,13.60
2018-08-09T19:12:32.478Z,12.73
2018-08-09T19:15:01.924Z,13.53
2018-08-09T19:17:31.267Z,13.27
2018-08-09T19:20:01.030Z,13.00
2018-08-09T19:22:30.247Z,13.37
2018-08-09T19:24:59.308Z,12.40
2018-08-09T19:27:30.109Z,12.83
2018-08-09T19:30:01.159Z,14.50
2018-08-09T19:32:30.613Z,14.03
2018-08-09T19:35:00.757Z,13.80
2018-08-09T19:37:30.309Z,14.50
2018-08-09T19:40:19.980Z,14.70
2018-08-09T19:42:50.171Z,15.33
2018-08-09T19:45:39.811Z,15.20
2018-08-09T19:48:09.992Z,16.63
2018-08-09T19:50:39.472Z,16.27
2018-08-09T19:53:10.748Z,15.83
2018-08-09T19:55:40.042Z,18.10
2018-08-09T19:58:09.357Z,17.40
2018-08-09T20:00:44.741Z,16.37
2018-08-09T20:03:17.988Z,15.83
2018-08-09T20:06:01.586Z,15.57
2018-08-09T20:08:31.104Z,14.43
2018-08-09T20:11:05.913Z,14.80
2018-08-09T20:13:47.748Z,15.10
2018-08-09T20:16:49.755Z,15.10
2018-08-09T20:19:19.515Z,14.33
2018-08-09T20:21:49.039Z,14.37
2018-08-09T20:24:39.161Z,14.53
2018-08-09T20:27:10.140Z,13.57
2018-08-09T20:29:39.372Z,14.97
2018-08-09T20:32:09.446Z,15.20
2018-08-09T20:34:40.692Z,15.33
2018-08-09T20:37:10.110Z,15.40
2018-08-09T20:39:42.658Z,15.73
2018-08-09T20:42:35.427Z,15.77
2018-08-09T20:45:05.386Z,15.30
2018-08-09T20:47:35.345Z,14.33
2018-08-09T20:50:05.851Z,14.63
2018-08-09T20:52:35.219Z,14.10
2018-08-09T20:55:05.761Z,14.13
2018-08-09T20:57:36.730Z,14.30
2018-08-09T21:00:20.863Z,14.40
2018-08-09T21:02:52.297Z,14.07
2018-08-09T21:05:25.946Z,15.20
2018-08-09T21:07:55.942Z,14.80
2018-08-09T21:10:25.973Z,15.00
2018-08-09T21:13:01.820Z,14.07
2018-08-09T21:15:31.523Z,14.13
2018-08-09T21:18:00.845Z,14.43
2018-08-09T21:20:30.025Z,13.70
2018-08-09T21:23:02.388Z,15.27
2018-08-09T21:25:48.567Z,15.20
2018-08-09T21:28:21.473Z,15.07
2018-08-09T21:31:24.306Z,16.37
2018-08-09T21:33:54.764Z,15.83
2018-08-09T21:39:26.486Z,14.77
2018-08-09T21:41:55.774Z,15.70
2018-08-09T21:44:25.591Z,15.63
2018-08-09T21:46:54.883Z,15.53
2018-08-09T21:49:25.326Z,15.20
2018-08-09T21:54:38.283Z,16.63
2018-08-09T21:57:10.310Z,15.60
2018-08-09T21:59:39.578Z,15.30
2018-08-09T22:02:08.725Z,15.57
2018-08-09T22:04:42.211Z,16.13
2018-08-09T22:07:16.416Z,15.07
2018-08-09T22:09:50.344Z,16.47
2018-08-09T22:12:24.565Z,16.17
2018-08-09T22:14:58.973Z,16.13
2018-08-09T22:17:33.095Z,15.83
2018-08-09T22:20:07.124Z,17.23
2018-08-09T22:22:44.892Z,16.27
2018-08-09T22:25:16.833Z,16.40
2018-08-09T22:28:22.735Z,16.13
2018-08-09T22:30:52.440Z,16.40
2018-08-09T22:33:21.656Z,16.87
2018-08-09T22:35:50.841Z,16.27
2018-08-09T22:38:20.081Z,17.63
2018-08-09T22:40:49.644Z,17.13
2018-08-09T22:43:18.954Z,17.93
2018-08-09T22:45:48.151Z,17.53
2018-08-09T22:48:17.371Z,17.00
2018-08-09T22:50:46.816Z,17.33
2018-08-09T22:53:16.816Z,17.13
2018-08-09T22:55:46.678Z,17.27
2018-08-09T23:03:57.477Z,16.77
2018-08-09T23:09:38.899Z,17.97
2018-08-09T23:12:26.053Z,17.53
2018-08-09T23:14:57.681Z,17.63
2018-08-09T23:21:33.716Z,19.10
2018-08-09T23:24:03.377Z,17.30
2018-08-09T23:26:32.776Z,18.87
2018-08-09T23:29:02.506Z,18.67
2018-08-09T23:31:34.581Z,18.03
2018-08-09T23:34:04.365Z,17.80
2018-08-09T23:36:33.564Z,18.90
2018-08-09T23:39:18.397Z,19.30
2018-08-09T23:41:49.038Z,19.43
2018-08-09T23:44:18.147Z,18.07
2018-08-09T23:46:50.338Z,16.20
2018-08-09T23:49:25.471Z,17.77
2018-08-09T23:51:55.185Z,19.23
2018-08-09T23:54:26.283Z,19.57
2018-08-09T23:56:57.772Z,19.87
2018-08-09T23:59:32.328Z,19.37
